Nashwauk, MN (55769)

4:14 AM CST on December 06, 2016 (GMT -0600)
Chisholm-hibbing | | Change Station

Elev 1352 ft 47.39 °N, 92.84 °W | Updated 21 minutes ago

Overcast
Overcast
32 °F
Feels Like 25 °F
N
8
Wind Variable Wind from South

Today
High -- | Low -- °F
--% Chance of Precip.
Yesterday
High -- | Low -- °F
Precip. -- in
Pressure 29.56 in
Visibility 10.0 miles
Clouds Few 1600 ft
Overcast 2200 ft
Windchill 25 °F
Dew Point 28 °F
Humidity 85%
Rainfall 0.00 in
Snow Depth Not available.
7:45 AM 4:22 PM
Waxing Crescent, 40% visible
METAR KHIB 060953Z AUTO 18007KT 150V210 10SM FEW016 OVC022 00/M02 A2951 RMK AO2 SLP010 T00001022
Pressure 29.56 in
Visibility 10.0 miles
Clouds Few 1600 ft
Overcast 2200 ft
Windchill 25 °F
Dew Point 28 °F
Humidity 85%
Rainfall 0.00 in
Snow Depth Not available.
7:45 AM 4:22 PM
Waxing Crescent, 40% visible
METAR KHIB 060953Z AUTO 18007KT 150V210 10SM FEW016 OVC022 00/M02 A2951 RMK AO2 SLP010 T00001022

10-Day Weather Forecast

Almanac

Astronomy

Dec. 06, 2016 Rise Set
Actual Time
Civil Twilight
Nautical Twilight
Astronomical Twilight
Moon
Length of Visible Light
Length of Day
Tomorrow will be .
, % of the Moon is Illuminated

Today's Extremes

State Highs State Lows

Community

WunderPhotos

Upload Photos

1,955,935 photos uploaded!

WunderBlog® & News

Nearby

Air Quality

  Air Quality AQ Index Pollutant
Not available.

Snow Depth

Station Depth Elevation

Earthquake Activity

City Distance Mag. Time & Date
Minimum magnitude displayed is 2.5.

Coastal Water Temperatures

Place Temperature

Stations

Nearby Weather Stations

Station Location Temp. Windchill Dew Point Humidity Wind Precip. Elev Updated Type
                   

Watches & Warnings

There are currently no watches in effect.